Bridger, South Dakota
Current Conditions -  °F | °C
As of 11:55 AM on Friday 28 Nov 2014 (Local Time) from KPHP Reporting Station
Clear Clear  
Wind Chill: 55°   Ceiling: Unl
Heat Index: 55°   Visibility: 10mi
Dew Point: 33°   Wind: 3mph
Humidity: 43%   Direction: 220°SW
Pressure: 29.63"   Gusts: NA
Location:  44.534°N, 102.24°W
Report Text: KPHP 281855Z AUTO 22003KT 10SM CLR 13/01 A2963 RMK AO2 SLP041 T01280006
Loading
Personal Weather Stations






























Interactive Weather Map New forecast layout! Learn more

10-Day Weather Forecast

Advertisements
Track Severe Weather on mobile